sensor_id;sensor_type;location;lat;lon;timestamp;temperature;humidity
2729;DHT22;1372;47.956;7.830;2023-05-10T00:00:11;14.30;99.90
2729;DHT22;1372;47.956;7.830;2023-05-10T00:02:40;14.30;99.90
2729;DHT22;1372;47.956;7.830;2023-05-10T00:05:09;14.30;99.90
2729;DHT22;1372;47.956;7.830;2023-05-10T00:07:38;14.30;99.90
2729;DHT22;1372;47.956;7.830;2023-05-10T00:10:08;14.30;99.90
2729;DHT22;1372;47.956;7.830;2023-05-10T00:12:37;14.40;99.90
2729;DHT22;1372;47.956;7.830;2023-05-10T00:15:09;14.30;99.90
2729;DHT22;1372;47.956;7.830;2023-05-10T00:17:40;14.30;99.90
2729;DHT22;1372;47.956;7.830;2023-05-10T00:20:10;14.30;99.90
2729;DHT22;1372;47.956;7.830;2023-05-10T00:22:39;14.30;99.90
2729;DHT22;1372;47.956;7.830;2023-05-10T00:25:08;14.30;99.90
2729;DHT22;1372;47.956;7.830;2023-05-10T00:27:37;14.30;99.90
2729;DHT22;1372;47.956;7.830;2023-05-10T00:30:09;14.20;99.90
2729;DHT22;1372;47.956;7.830;2023-05-10T00:32:38;14.20;99.90
2729;DHT22;1372;47.956;7.830;2023-05-10T00:35:07;14.20;99.90
2729;DHT22;1372;47.956;7.830;2023-05-10T00:37:38;14.10;99.90
2729;DHT22;1372;47.956;7.830;2023-05-10T00:40:08;14.20;99.90
2729;DHT22;1372;47.956;7.830;2023-05-10T00:42:39;14.20;99.90
2729;DHT22;1372;47.956;7.830;2023-05-10T00:45:10;14.20;99.90
2729;DHT22;1372;47.956;7.830;2023-05-10T00:47:39;14.20;99.90
2729;DHT22;1372;47.956;7.830;2023-05-10T00:50:09;14.10;99.90
2729;DHT22;1372;47.956;7.830;2023-05-10T00:52:42;14.20;99.90
2729;DHT22;1372;47.956;7.830;2023-05-10T00:55:11;14.10;99.90
2729;DHT22;1372;47.956;7.830;2023-05-10T00:57:41;14.10;99.90
2729;DHT22;1372;47.956;7.830;2023-05-10T01:00:12;14.20;99.90
2729;DHT22;1372;47.956;7.830;2023-05-10T01:02:45;14.10;99.90
2729;DHT22;1372;47.956;7.830;2023-05-10T01:05:15;14.20;99.90
2729;DHT22;1372;47.956;7.830;2023-05-10T01:07:44;14.20;99.90
2729;DHT22;1372;47.956;7.830;2023-05-10T01:10:13;14.20;99.90
2729;DHT22;1372;47.956;7.830;2023-05-10T01:12:43;14.10;99.90
2729;DHT22;1372;47.956;7.830;2023-05-10T01:15:16;14.10;99.90
2729;DHT22;1372;47.956;7.830;2023-05-10T01:17:48;14.10;99.90
2729;DHT22;1372;47.956;7.830;2023-05-10T01:20:17;14.10;99.90
2729;DHT22;1372;47.956;7.830;2023-05-10T01:23:07;14.10;99.90
2729;DHT22;1372;47.956;7.830;2023-05-10T01:32:48;14.10;99.90
2729;DHT22;1372;47.956;7.830;2023-05-10T01:35:27;14.10;99.90
2729;DHT22;1372;47.956;7.830;2023-05-10T01:38:07;14.10;99.90
2729;DHT22;1372;47.956;7.830;2023-05-10T01:40:48;14.10;99.90
2729;DHT22;1372;47.956;7.830;2023-05-10T01:43:30;14.10;99.90
2729;DHT22;1372;47.956;7.830;2023-05-10T01:46:03;14.10;99.90
2729;DHT22;1372;47.956;7.830;2023-05-10T01:48:47;14.00;99.90
2729;DHT22;1372;47.956;7.830;2023-05-10T01:51:21;14.00;99.90
2729;DHT22;1372;47.956;7.830;2023-05-10T01:53:59;14.10;99.90
2729;DHT22;1372;47.956;7.830;2023-05-10T01:56:32;14.00;99.90
2729;DHT22;1372;47.956;7.830;2023-05-10T01:59:05;14.10;99.90
2729;DHT22;1372;47.956;7.830;2023-05-10T02:01:37;14.10;99.90
2729;DHT22;1372;47.956;7.830;2023-05-10T02:04:08;14.00;99.90
2729;DHT22;1372;47.956;7.830;2023-05-10T02:06:38;13.80;99.90
2729;DHT22;1372;47.956;7.830;2023-05-10T02:09:10;13.90;99.90
2729;DHT22;1372;47.956;7.830;2023-05-10T02:11:41;13.90;99.90
2729;DHT22;1372;47.956;7.830;2023-05-10T02:14:11;13.80;99.90
2729;DHT22;1372;47.956;7.830;2023-05-10T02:16:41;13.80;99.90
2729;DHT22;1372;47.956;7.830;2023-05-10T02:19:12;13.80;99.90
2729;DHT22;1372;47.956;7.830;2023-05-10T02:21:43;13.70;99.90
2729;DHT22;1372;47.956;7.830;2023-05-10T02:24:13;13.80;99.90
2729;DHT22;1372;47.956;7.830;2023-05-10T02:26:44;13.80;99.90
2729;DHT22;1372;47.956;7.830;2023-05-10T02:29:17;13.80;99.90
2729;DHT22;1372;47.956;7.830;2023-05-10T02:31:47;13.80;99.90
2729;DHT22;1372;47.956;7.830;2023-05-10T02:34:20;13.80;99.90
2729;DHT22;1372;47.956;7.830;2023-05-10T02:36:53;13.80;99.90
2729;DHT22;1372;47.956;7.830;2023-05-10T02:39:23;13.70;99.90
2729;DHT22;1372;47.956;7.830;2023-05-10T02:41:52;13.70;99.90
2729;DHT22;1372;47.956;7.830;2023-05-10T02:44:23;13.80;99.90
2729;DHT22;1372;47.956;7.830;2023-05-10T02:46:53;13.80;99.90
2729;DHT22;1372;47.956;7.830;2023-05-10T02:49:24;13.70;99.90
2729;DHT22;1372;47.956;7.830;2023-05-10T02:51:57;13.70;99.90
2729;DHT22;1372;47.956;7.830;2023-05-10T02:54:32;13.70;99.90
2729;DHT22;1372;47.956;7.830;2023-05-10T02:57:04;13.70;99.90
2729;DHT22;1372;47.956;7.830;2023-05-10T02:59:34;13.70;99.90
2729;DHT22;1372;47.956;7.830;2023-05-10T03:02:03;13.60;99.90
2729;DHT22;1372;47.956;7.830;2023-05-10T03:04:34;13.60;99.90
2729;DHT22;1372;47.956;7.830;2023-05-10T03:07:03;13.60;99.90
2729;DHT22;1372;47.956;7.830;2023-05-10T03:09:32;13.60;99.90
2729;DHT22;1372;47.956;7.830;2023-05-10T03:12:06;13.60;99.90
2729;DHT22;1372;47.956;7.830;2023-05-10T03:14:54;13.60;99.90
2729;DHT22;1372;47.956;7.830;2023-05-10T03:17:30;13.70;99.90
2729;DHT22;1372;47.956;7.830;2023-05-10T03:20:09;13.70;99.90
2729;DHT22;1372;47.956;7.830;2023-05-10T03:22:47;13.60;99.90
2729;DHT22;1372;47.956;7.830;2023-05-10T03:25:23;13.60;99.90
2729;DHT22;1372;47.956;7.830;2023-05-10T03:27:52;13.50;99.90
2729;DHT22;1372;47.956;7.830;2023-05-10T03:30:22;13.60;99.90
2729;DHT22;1372;47.956;7.830;2023-05-10T03:32:52;13.50;99.90
2729;DHT22;1372;47.956;7.830;2023-05-10T03:35:23;13.50;99.90
2729;DHT22;1372;47.956;7.830;2023-05-10T03:37:52;13.50;99.90
2729;DHT22;1372;47.956;7.830;2023-05-10T03:40:21;13.50;99.90
2729;DHT22;1372;47.956;7.830;2023-05-10T03:42:50;13.50;99.90
2729;DHT22;1372;47.956;7.830;2023-05-10T03:45:18;13.50;99.90
2729;DHT22;1372;47.956;7.830;2023-05-10T03:47:47;13.40;99.90
2729;DHT22;1372;47.956;7.830;2023-05-10T03:50:16;13.40;99.90
2729;DHT22;1372;47.956;7.830;2023-05-10T03:52:46;13.50;99.90
2729;DHT22;1372;47.956;7.830;2023-05-10T03:55:15;13.40;99.90
2729;DHT22;1372;47.956;7.830;2023-05-10T03:57:44;13.40;99.90
2729;DHT22;1372;47.956;7.830;2023-05-10T04:00:13;13.40;99.90
2729;DHT22;1372;47.956;7.830;2023-05-10T04:02:43;13.20;99.90
2729;DHT22;1372;47.956;7.830;2023-05-10T04:05:12;13.20;99.90
2729;DHT22;1372;47.956;7.830;2023-05-10T04:07:41;13.10;99.90
2729;DHT22;1372;47.956;7.830;2023-05-10T04:10:12;13.20;99.90
2729;DHT22;1372;47.956;7.830;2023-05-10T04:12:41;13.10;99.90
2729;DHT22;1372;47.956;7.830;2023-05-10T04:15:10;13.10;99.90
2729;DHT22;1372;47.956;7.830;2023-05-10T04:17:39;13.10;99.90
2729;DHT22;1372;47.956;7.830;2023-05-10T04:20:09;13.00;99.90
2729;DHT22;1372;47.956;7.830;2023-05-10T04:22:40;12.90;99.90
2729;DHT22;1372;47.956;7.830;2023-05-10T04:25:11;12.90;99.90
2729;DHT22;1372;47.956;7.830;2023-05-10T04:27:40;12.90;99.90
2729;DHT22;1372;47.956;7.830;2023-05-10T04:30:09;12.90;99.90
2729;DHT22;1372;47.956;7.830;2023-05-10T04:32:39;13.00;99.90
2729;DHT22;1372;47.956;7.830;2023-05-10T04:35:08;13.10;99.90
2729;DHT22;1372;47.956;7.830;2023-05-10T04:37:38;13.10;99.90
2729;DHT22;1372;47.956;7.830;2023-05-10T04:40:08;13.20;99.90
2729;DHT22;1372;47.956;7.830;2023-05-10T04:42:40;13.20;99.90
2729;DHT22;1372;47.956;7.830;2023-05-10T04:45:10;13.20;99.90
2729;DHT22;1372;47.956;7.830;2023-05-10T04:47:39;13.20;99.90
2729;DHT22;1372;47.956;7.830;2023-05-10T04:50:08;13.20;99.90
2729;DHT22;1372;47.956;7.830;2023-05-10T04:52:37;13.20;99.90
2729;DHT22;1372;47.956;7.830;2023-05-10T04:55:06;13.20;99.90
2729;DHT22;1372;47.956;7.830;2023-05-10T04:57:37;13.20;99.90
2729;DHT22;1372;47.956;7.830;2023-05-10T05:00:09;13.30;99.90
2729;DHT22;1372;47.956;7.830;2023-05-10T05:02:41;13.30;99.90
2729;DHT22;1372;47.956;7.830;2023-05-10T05:05:11;13.30;99.90
2729;DHT22;1372;47.956;7.830;2023-05-10T05:07:39;13.30;99.90
2729;DHT22;1372;47.956;7.830;2023-05-10T05:10:09;13.30;99.90
2729;DHT22;1372;47.956;7.830;2023-05-10T05:12:38;13.30;99.90
2729;DHT22;1372;47.956;7.830;2023-05-10T05:15:08;13.40;99.90
2729;DHT22;1372;47.956;7.830;2023-05-10T05:17:38;13.40;99.90
2729;DHT22;1372;47.956;7.830;2023-05-10T05:20:08;13.40;99.90
2729;DHT22;1372;47.956;7.830;2023-05-10T05:22:39;13.30;99.90
2729;DHT22;1372;47.956;7.830;2023-05-10T05:25:10;13.40;99.90
2729;DHT22;1372;47.956;7.830;2023-05-10T05:27:39;13.50;99.90
2729;DHT22;1372;47.956;7.830;2023-05-10T05:30:10;13.50;99.90
2729;DHT22;1372;47.956;7.830;2023-05-10T05:32:39;13.50;99.90
2729;DHT22;1372;47.956;7.830;2023-05-10T05:35:08;13.50;99.90
2729;DHT22;1372;47.956;7.830;2023-05-10T05:37:38;13.50;99.90
2729;DHT22;1372;47.956;7.830;2023-05-10T05:40:08;13.50;99.90
2729;DHT22;1372;47.956;7.830;2023-05-10T05:42:40;13.60;99.90
2729;DHT22;1372;47.956;7.830;2023-05-10T05:45:10;13.60;99.90
2729;DHT22;1372;47.956;7.830;2023-05-10T05:47:41;13.70;99.90
2729;DHT22;1372;47.956;7.830;2023-05-10T05:50:10;13.70;99.90
2729;DHT22;1372;47.956;7.830;2023-05-10T05:52:40;13.60;99.90
2729;DHT22;1372;47.956;7.830;2023-05-10T05:55:11;13.70;99.90
2729;DHT22;1372;47.956;7.830;2023-05-10T05:57:40;13.70;99.90
2729;DHT22;1372;47.956;7.830;2023-05-10T06:00:11;13.60;99.90
2729;DHT22;1372;47.956;7.830;2023-05-10T06:02:41;13.60;99.90
2729;DHT22;1372;47.956;7.830;2023-05-10T06:05:10;13.60;99.90
2729;DHT22;1372;47.956;7.830;2023-05-10T06:07:38;13.60;99.90
2729;DHT22;1372;47.956;7.830;2023-05-10T06:10:12;13.60;99.90
2729;DHT22;1372;47.956;7.830;2023-05-10T06:12:43;13.60;99.90
2729;DHT22;1372;47.956;7.830;2023-05-10T06:15:13;13.60;99.90
2729;DHT22;1372;47.956;7.830;2023-05-10T06:17:43;13.50;99.90
2729;DHT22;1372;47.956;7.830;2023-05-10T06:20:15;13.50;99.90
2729;DHT22;1372;47.956;7.830;2023-05-10T06:22:46;13.50;99.90
2729;DHT22;1372;47.956;7.830;2023-05-10T06:25:15;13.60;99.90
2729;DHT22;1372;47.956;7.830;2023-05-10T06:27:45;13.60;99.90
2729;DHT22;1372;47.956;7.830;2023-05-10T06:30:20;13.60;99.90
2729;DHT22;1372;47.956;7.830;2023-05-10T06:32:50;13.70;99.90
2729;DHT22;1372;47.956;7.830;2023-05-10T06:35:19;13.60;99.90
2729;DHT22;1372;47.956;7.830;2023-05-10T06:37:48;13.60;99.90
2729;DHT22;1372;47.956;7.830;2023-05-10T06:40:17;13.60;99.90
2729;DHT22;1372;47.956;7.830;2023-05-10T06:42:47;13.70;99.90
2729;DHT22;1372;47.956;7.830;2023-05-10T06:45:16;13.70;99.90
2729;DHT22;1372;47.956;7.830;2023-05-10T06:47:49;13.70;99.90
2729;DHT22;1372;47.956;7.830;2023-05-10T06:50:18;13.80;99.90
2729;DHT22;1372;47.956;7.830;2023-05-10T06:52:47;13.70;99.90
2729;DHT22;1372;47.956;7.830;2023-05-10T06:55:18;13.70;99.90
2729;DHT22;1372;47.956;7.830;2023-05-10T06:57:47;13.70;99.90
2729;DHT22;1372;47.956;7.830;2023-05-10T07:00:17;13.60;99.90
2729;DHT22;1372;47.956;7.830;2023-05-10T07:02:51;13.50;99.90
2729;DHT22;1372;47.956;7.830;2023-05-10T07:05:20;13.60;99.90
2729;DHT22;1372;47.956;7.830;2023-05-10T07:07:49;13.60;99.90
2729;DHT22;1372;47.956;7.830;2023-05-10T07:10:18;13.60;99.90
2729;DHT22;1372;47.956;7.830;2023-05-10T07:12:47;13.60;99.90
2729;DHT22;1372;47.956;7.830;2023-05-10T07:15:16;13.70;99.90
2729;DHT22;1372;47.956;7.830;2023-05-10T07:17:45;13.60;99.90
2729;DHT22;1372;47.956;7.830;2023-05-10T07:20:19;13.80;99.90
2729;DHT22;1372;47.956;7.830;2023-05-10T07:22:48;13.90;99.90
2729;DHT22;1372;47.956;7.830;2023-05-10T07:25:17;13.90;99.90
2729;DHT22;1372;47.956;7.830;2023-05-10T07:27:46;13.90;99.90
2729;DHT22;1372;47.956;7.830;2023-05-10T07:30:15;13.80;99.90
2729;DHT22;1372;47.956;7.830;2023-05-10T07:32:44;13.90;99.90
2729;DHT22;1372;47.956;7.830;2023-05-10T07:35:13;13.90;99.90
2729;DHT22;1372;47.956;7.830;2023-05-10T07:37:44;13.90;99.90
2729;DHT22;1372;47.956;7.830;2023-05-10T07:40:12;13.90;99.90
2729;DHT22;1372;47.956;7.830;2023-05-10T07:42:41;13.80;99.90
2729;DHT22;1372;47.956;7.830;2023-05-10T07:45:10;13.90;99.90
2729;DHT22;1372;47.956;7.830;2023-05-10T07:47:39;13.90;99.90
2729;DHT22;1372;47.956;7.830;2023-05-10T07:50:08;13.90;99.90
2729;DHT22;1372;47.956;7.830;2023-05-10T07:52:37;13.90;99.90
2729;DHT22;1372;47.956;7.830;2023-05-10T07:55:09;14.00;99.90
2729;DHT22;1372;47.956;7.830;2023-05-10T07:57:38;14.10;99.90
2729;DHT22;1372;47.956;7.830;2023-05-10T08:00:08;14.10;99.90
2729;DHT22;1372;47.956;7.830;2023-05-10T08:02:38;14.30;99.90
2729;DHT22;1372;47.956;7.830;2023-05-10T08:05:09;14.30;99.90
2729;DHT22;1372;47.956;7.830;2023-05-10T08:07:40;14.30;99.90
2729;DHT22;1372;47.956;7.830;2023-05-10T08:10:11;14.30;99.90
2729;DHT22;1372;47.956;7.830;2023-05-10T08:12:40;14.30;99.90
2729;DHT22;1372;47.956;7.830;2023-05-10T08:15:11;14.40;99.90
2729;DHT22;1372;47.956;7.830;2023-05-10T08:17:40;14.40;99.90
2729;DHT22;1372;47.956;7.830;2023-05-10T08:20:10;14.50;99.90
2729;DHT22;1372;47.956;7.830;2023-05-10T08:22:40;14.60;99.90
2729;DHT22;1372;47.956;7.830;2023-05-10T08:25:08;14.70;99.90
2729;DHT22;1372;47.956;7.830;2023-05-10T08:27:39;14.80;99.90
2729;DHT22;1372;47.956;7.830;2023-05-10T08:30:08;14.80;99.90
2729;DHT22;1372;47.956;7.830;2023-05-10T08:32:38;14.90;99.90
2729;DHT22;1372;47.956;7.830;2023-05-10T08:35:07;14.80;99.90
2729;DHT22;1372;47.956;7.830;2023-05-10T08:37:36;14.90;99.90
2729;DHT22;1372;47.956;7.830;2023-05-10T08:40:06;14.80;99.90
2729;DHT22;1372;47.956;7.830;2023-05-10T08:42:40;14.90;99.90
2729;DHT22;1372;47.956;7.830;2023-05-10T08:45:13;15.00;99.90
2729;DHT22;1372;47.956;7.830;2023-05-10T08:47:46;15.00;99.90
2729;DHT22;1372;47.956;7.830;2023-05-10T08:50:17;15.10;99.90
2729;DHT22;1372;47.956;7.830;2023-05-10T08:52:51;15.20;99.90
2729;DHT22;1372;47.956;7.830;2023-05-10T08:55:21;15.20;99.90
2729;DHT22;1372;47.956;7.830;2023-05-10T08:57:53;15.30;99.90
2729;DHT22;1372;47.956;7.830;2023-05-10T09:00:22;15.40;99.90
2729;DHT22;1372;47.956;7.830;2023-05-10T09:02:51;15.40;99.90
2729;DHT22;1372;47.956;7.830;2023-05-10T09:05:20;15.40;99.90
2729;DHT22;1372;47.956;7.830;2023-05-10T09:07:49;15.30;99.90
2729;DHT22;1372;47.956;7.830;2023-05-10T09:10:19;15.20;99.90
2729;DHT22;1372;47.956;7.830;2023-05-10T09:12:49;15.20;99.90
2729;DHT22;1372;47.956;7.830;2023-05-10T09:15:20;15.20;99.90
2729;DHT22;1372;47.956;7.830;2023-05-10T09:17:49;15.20;99.90
2729;DHT22;1372;47.956;7.830;2023-05-10T09:20:21;15.30;99.90
2729;DHT22;1372;47.956;7.830;2023-05-10T09:22:50;15.30;99.90
2729;DHT22;1372;47.956;7.830;2023-05-10T09:25:19;15.10;99.90
2729;DHT22;1372;47.956;7.830;2023-05-10T09:27:49;15.10;99.90
2729;DHT22;1372;47.956;7.830;2023-05-10T09:30:25;15.00;99.90
2729;DHT22;1372;47.956;7.830;2023-05-10T09:32:55;15.10;99.90
2729;DHT22;1372;47.956;7.830;2023-05-10T09:35:29;15.00;99.90
2729;DHT22;1372;47.956;7.830;2023-05-10T09:38:01;15.00;99.90
2729;DHT22;1372;47.956;7.830;2023-05-10T09:40:31;15.10;99.90
2729;DHT22;1372;47.956;7.830;2023-05-10T09:43:01;15.10;99.90
2729;DHT22;1372;47.956;7.830;2023-05-10T09:45:34;15.10;99.90
2729;DHT22;1372;47.956;7.830;2023-05-10T09:48:05;15.30;99.90
2729;DHT22;1372;47.956;7.830;2023-05-10T09:50:34;15.30;99.90
2729;DHT22;1372;47.956;7.830;2023-05-10T09:53:04;15.40;99.90
2729;DHT22;1372;47.956;7.830;2023-05-10T09:55:40;15.60;99.90
2729;DHT22;1372;47.956;7.830;2023-05-10T09:58:12;15.60;99.90
2729;DHT22;1372;47.956;7.830;2023-05-10T10:00:44;15.60;99.90
2729;DHT22;1372;47.956;7.830;2023-05-10T10:03:16;15.50;99.90
2729;DHT22;1372;47.956;7.830;2023-05-10T10:05:47;15.50;99.90
2729;DHT22;1372;47.956;7.830;2023-05-10T10:08:17;15.60;99.90
2729;DHT22;1372;47.956;7.830;2023-05-10T10:10:48;15.60;99.90
2729;DHT22;1372;47.956;7.830;2023-05-10T10:13:17;15.80;99.90
2729;DHT22;1372;47.956;7.830;2023-05-10T10:15:48;15.90;99.90
2729;DHT22;1372;47.956;7.830;2023-05-10T10:18:18;16.00;99.90
2729;DHT22;1372;47.956;7.830;2023-05-10T10:20:52;16.10;99.90
2729;DHT22;1372;47.956;7.830;2023-05-10T10:23:22;16.10;99.90
2729;DHT22;1372;47.956;7.830;2023-05-10T10:25:51;16.10;99.90
2729;DHT22;1372;47.956;7.830;2023-05-10T10:28:26;16.00;99.90
2729;DHT22;1372;47.956;7.830;2023-05-10T10:31:13;15.90;99.90
2729;DHT22;1372;47.956;7.830;2023-05-10T10:33:59;16.00;99.90
2729;DHT22;1372;47.956;7.830;2023-05-10T10:36:29;16.10;99.90
2729;DHT22;1372;47.956;7.830;2023-05-10T10:39:01;16.30;99.90
2729;DHT22;1372;47.956;7.830;2023-05-10T10:41:33;16.50;99.90
2729;DHT22;1372;47.956;7.830;2023-05-10T10:44:27;16.60;99.90
2729;DHT22;1372;47.956;7.830;2023-05-10T10:47:21;16.60;99.90
2729;DHT22;1372;47.956;7.830;2023-05-10T10:50:02;16.70;99.90
2729;DHT22;1372;47.956;7.830;2023-05-10T10:52:33;16.60;99.90
2729;DHT22;1372;47.956;7.830;2023-05-10T10:55:05;16.70;99.90
2729;DHT22;1372;47.956;7.830;2023-05-10T10:57:46;16.70;99.90
2729;DHT22;1372;47.956;7.830;2023-05-10T11:00:26;16.60;99.90
2729;DHT22;1372;47.956;7.830;2023-05-10T11:03:04;16.80;99.90
2729;DHT22;1372;47.956;7.830;2023-05-10T11:05:36;16.90;99.90
2729;DHT22;1372;47.956;7.830;2023-05-10T11:08:20;16.90;99.90
2729;DHT22;1372;47.956;7.830;2023-05-10T11:11:06;16.80;99.90
2729;DHT22;1372;47.956;7.830;2023-05-10T11:13:38;16.70;99.90
2729;DHT22;1372;47.956;7.830;2023-05-10T11:16:18;16.70;99.90
2729;DHT22;1372;47.956;7.830;2023-05-10T11:19:01;16.60;99.90
2729;DHT22;1372;47.956;7.830;2023-05-10T11:21:32;16.60;99.90
2729;DHT22;1372;47.956;7.830;2023-05-10T11:24:03;16.50;99.90
2729;DHT22;1372;47.956;7.830;2023-05-10T11:26:42;16.70;99.90
2729;DHT22;1372;47.956;7.830;2023-05-10T11:29:12;16.80;99.90
2729;DHT22;1372;47.956;7.830;2023-05-10T11:31:42;17.10;99.90
2729;DHT22;1372;47.956;7.830;2023-05-10T11:34:24;17.10;99.90
2729;DHT22;1372;47.956;7.830;2023-05-10T11:36:54;17.10;99.90
2729;DHT22;1372;47.956;7.830;2023-05-10T11:39:26;17.30;99.90
2729;DHT22;1372;47.956;7.830;2023-05-10T11:41:56;17.60;99.90
2729;DHT22;1372;47.956;7.830;2023-05-10T11:44:29;17.70;99.90
2729;DHT22;1372;47.956;7.830;2023-05-10T11:46:59;18.00;99.90
2729;DHT22;1372;47.956;7.830;2023-05-10T11:49:30;18.10;99.90
2729;DHT22;1372;47.956;7.830;2023-05-10T11:52:04;18.20;99.90
2729;DHT22;1372;47.956;7.830;2023-05-10T11:54:34;18.10;99.90
2729;DHT22;1372;47.956;7.830;2023-05-10T11:57:05;18.00;99.90
2729;DHT22;1372;47.956;7.830;2023-05-10T11:59:34;17.90;99.90
2729;DHT22;1372;47.956;7.830;2023-05-10T12:02:03;17.90;99.90
2729;DHT22;1372;47.956;7.830;2023-05-10T12:04:33;17.90;99.90
2729;DHT22;1372;47.956;7.830;2023-05-10T12:07:02;17.90;99.90
2729;DHT22;1372;47.956;7.830;2023-05-10T12:09:31;18.20;99.90
2729;DHT22;1372;47.956;7.830;2023-05-10T12:12:12;18.40;99.90
2729;DHT22;1372;47.956;7.830;2023-05-10T12:14:44;18.60;99.90
2729;DHT22;1372;47.956;7.830;2023-05-10T12:17:17;18.60;99.90
2729;DHT22;1372;47.956;7.830;2023-05-10T12:19:47;18.80;99.90
2729;DHT22;1372;47.956;7.830;2023-05-10T12:22:20;18.80;99.90
2729;DHT22;1372;47.956;7.830;2023-05-10T12:24:50;18.60;99.90
2729;DHT22;1372;47.956;7.830;2023-05-10T12:27:19;18.10;99.90
2729;DHT22;1372;47.956;7.830;2023-05-10T12:29:50;18.00;99.90
2729;DHT22;1372;47.956;7.830;2023-05-10T12:32:21;17.60;99.90
2729;DHT22;1372;47.956;7.830;2023-05-10T12:35:08;17.30;99.90
2729;DHT22;1372;47.956;7.830;2023-05-10T12:37:37;17.00;99.90
2729;DHT22;1372;47.956;7.830;2023-05-10T12:40:08;16.70;99.90
2729;DHT22;1372;47.956;7.830;2023-05-10T12:42:38;16.30;99.90
2729;DHT22;1372;47.956;7.830;2023-05-10T12:45:08;16.20;99.90
2729;DHT22;1372;47.956;7.830;2023-05-10T12:47:38;16.20;99.90
2729;DHT22;1372;47.956;7.830;2023-05-10T12:50:11;16.20;99.90
2729;DHT22;1372;47.956;7.830;2023-05-10T12:52:40;16.20;99.90
2729;DHT22;1372;47.956;7.830;2023-05-10T12:55:08;16.40;99.90
2729;DHT22;1372;47.956;7.830;2023-05-10T12:57:39;16.60;99.90
2729;DHT22;1372;47.956;7.830;2023-05-10T13:00:09;16.80;99.90
2729;DHT22;1372;47.956;7.830;2023-05-10T13:02:38;16.90;99.90
2729;DHT22;1372;47.956;7.830;2023-05-10T13:05:07;16.90;99.90
2729;DHT22;1372;47.956;7.830;2023-05-10T13:07:38;17.00;99.90
2729;DHT22;1372;47.956;7.830;2023-05-10T13:10:07;16.80;99.90
2729;DHT22;1372;47.956;7.830;2023-05-10T13:12:36;16.60;99.90
2729;DHT22;1372;47.956;7.830;2023-05-10T13:15:08;16.60;99.90
2729;DHT22;1372;47.956;7.830;2023-05-10T13:17:37;16.40;99.90
2729;DHT22;1372;47.956;7.830;2023-05-10T13:20:08;16.30;99.90
2729;DHT22;1372;47.956;7.830;2023-05-10T13:22:39;16.30;99.90
2729;DHT22;1372;47.956;7.830;2023-05-10T13:25:08;16.20;99.90
2729;DHT22;1372;47.956;7.830;2023-05-10T13:27:39;16.20;99.90
2729;DHT22;1372;47.956;7.830;2023-05-10T13:30:08;16.40;99.90
2729;DHT22;1372;47.956;7.830;2023-05-10T13:32:40;16.80;99.90
2729;DHT22;1372;47.956;7.830;2023-05-10T13:35:09;17.00;99.90
2729;DHT22;1372;47.956;7.830;2023-05-10T13:37:39;17.00;99.90
2729;DHT22;1372;47.956;7.830;2023-05-10T13:40:08;17.20;99.90
2729;DHT22;1372;47.956;7.830;2023-05-10T13:42:37;17.40;99.90
2729;DHT22;1372;47.956;7.830;2023-05-10T13:45:07;17.30;99.90
2729;DHT22;1372;47.956;7.830;2023-05-10T13:47:36;17.10;99.90
2729;DHT22;1372;47.956;7.830;2023-05-10T13:50:08;16.90;99.90
2729;DHT22;1372;47.956;7.830;2023-05-10T13:52:38;16.70;99.90
2729;DHT22;1372;47.956;7.830;2023-05-10T13:55:08;16.60;99.90
2729;DHT22;1372;47.956;7.830;2023-05-10T13:57:39;16.60;99.90
2729;DHT22;1372;47.956;7.830;2023-05-10T14:00:08;16.70;99.90
2729;DHT22;1372;47.956;7.830;2023-05-10T14:02:38;16.80;99.90
2729;DHT22;1372;47.956;7.830;2023-05-10T14:05:07;16.80;99.90
2729;DHT22;1372;47.956;7.830;2023-05-10T14:07:38;16.90;99.90
2729;DHT22;1372;47.956;7.830;2023-05-10T14:10:08;17.20;99.90
2729;DHT22;1372;47.956;7.830;2023-05-10T14:12:38;17.40;99.90
2729;DHT22;1372;47.956;7.830;2023-05-10T14:15:07;17.30;99.90
2729;DHT22;1372;47.956;7.830;2023-05-10T14:17:41;17.30;99.90
2729;DHT22;1372;47.956;7.830;2023-05-10T14:20:11;17.30;99.90
2729;DHT22;1372;47.956;7.830;2023-05-10T14:22:41;17.10;99.90
2729;DHT22;1372;47.956;7.830;2023-05-10T14:25:10;17.00;99.90
2729;DHT22;1372;47.956;7.830;2023-05-10T14:27:39;17.00;99.90
2729;DHT22;1372;47.956;7.830;2023-05-10T14:30:08;16.80;99.90
2729;DHT22;1372;47.956;7.830;2023-05-10T14:32:38;16.80;99.90
2729;DHT22;1372;47.956;7.830;2023-05-10T14:35:07;16.90;99.90
2729;DHT22;1372;47.956;7.830;2023-05-10T14:37:40;17.00;99.90
2729;DHT22;1372;47.956;7.830;2023-05-10T14:40:11;16.90;99.90
2729;DHT22;1372;47.956;7.830;2023-05-10T14:42:42;16.90;99.90
2729;DHT22;1372;47.956;7.830;2023-05-10T14:45:13;16.70;99.90
2729;DHT22;1372;47.956;7.830;2023-05-10T14:47:49;16.50;99.90
2729;DHT22;1372;47.956;7.830;2023-05-10T14:50:18;16.30;99.90
2729;DHT22;1372;47.956;7.830;2023-05-10T14:53:03;16.20;99.90
2729;DHT22;1372;47.956;7.830;2023-05-10T14:55:32;16.20;99.90
2729;DHT22;1372;47.956;7.830;2023-05-10T14:58:02;16.30;99.90
2729;DHT22;1372;47.956;7.830;2023-05-10T15:00:31;16.30;99.90
2729;DHT22;1372;47.956;7.830;2023-05-10T15:03:02;16.30;99.90
2729;DHT22;1372;47.956;7.830;2023-05-10T15:05:31;16.40;99.90
2729;DHT22;1372;47.956;7.830;2023-05-10T15:08:00;16.40;99.90
2729;DHT22;1372;47.956;7.830;2023-05-10T15:10:30;16.80;99.90
2729;DHT22;1372;47.956;7.830;2023-05-10T15:13:00;17.20;99.90
2729;DHT22;1372;47.956;7.830;2023-05-10T15:15:31;17.20;99.90
2729;DHT22;1372;47.956;7.830;2023-05-10T15:17:59;17.00;99.90
2729;DHT22;1372;47.956;7.830;2023-05-10T15:20:28;17.00;99.90
2729;DHT22;1372;47.956;7.830;2023-05-10T15:22:57;17.10;99.90
2729;DHT22;1372;47.956;7.830;2023-05-10T15:25:28;17.40;99.90
2729;DHT22;1372;47.956;7.830;2023-05-10T15:28:07;17.80;99.90
2729;DHT22;1372;47.956;7.830;2023-05-10T15:30:36;17.90;99.90
2729;DHT22;1372;47.956;7.830;2023-05-10T15:33:05;17.80;99.90
2729;DHT22;1372;47.956;7.830;2023-05-10T15:35:39;17.70;99.90
2729;DHT22;1372;47.956;7.830;2023-05-10T15:38:09;17.60;99.90
2729;DHT22;1372;47.956;7.830;2023-05-10T15:40:38;17.50;99.90
2729;DHT22;1372;47.956;7.830;2023-05-10T15:43:09;17.40;99.90
2729;DHT22;1372;47.956;7.830;2023-05-10T15:45:38;17.30;99.90
2729;DHT22;1372;47.956;7.830;2023-05-10T15:48:06;17.20;99.90
2729;DHT22;1372;47.956;7.830;2023-05-10T15:50:35;17.20;99.90
2729;DHT22;1372;47.956;7.830;2023-05-10T15:53:04;17.00;99.90
2729;DHT22;1372;47.956;7.830;2023-05-10T15:55:33;17.00;99.90
2729;DHT22;1372;47.956;7.830;2023-05-10T15:58:02;16.90;99.90
2729;DHT22;1372;47.956;7.830;2023-05-10T16:00:32;16.80;99.90
2729;DHT22;1372;47.956;7.830;2023-05-10T16:03:01;16.80;99.90
2729;DHT22;1372;47.956;7.830;2023-05-10T16:05:30;16.70;99.90
2729;DHT22;1372;47.956;7.830;2023-05-10T16:08:00;16.60;99.90
2729;DHT22;1372;47.956;7.830;2023-05-10T16:10:31;16.50;99.90
2729;DHT22;1372;47.956;7.830;2023-05-10T16:13:00;16.50;99.90
2729;DHT22;1372;47.956;7.830;2023-05-10T16:15:29;16.50;99.90
2729;DHT22;1372;47.956;7.830;2023-05-10T16:18:00;16.50;99.90
2729;DHT22;1372;47.956;7.830;2023-05-10T16:20:29;16.40;99.90
2729;DHT22;1372;47.956;7.830;2023-05-10T16:22:59;16.40;99.90
2729;DHT22;1372;47.956;7.830;2023-05-10T16:25:33;16.70;99.90
2729;DHT22;1372;47.956;7.830;2023-05-10T16:28:02;16.90;99.90
2729;DHT22;1372;47.956;7.830;2023-05-10T16:30:32;16.90;99.90
2729;DHT22;1372;47.956;7.830;2023-05-10T16:33:02;16.80;99.90